createdAt,value
2022-08-28T00:00:43.730Z,99456.72
2022-08-28T00:03:13.888Z,99459.91
2022-08-28T00:05:44.383Z,99459.44
2022-08-28T00:08:14.492Z,99456.13
2022-08-28T00:10:45.028Z,99460.63
2022-08-28T00:13:17.412Z,99456.50
2022-08-28T00:15:51.081Z,99469.06
2022-08-28T00:18:19.618Z,99463.66
2022-08-28T00:20:48.997Z,99461.72
2022-08-28T00:23:17.262Z,99456.44
2022-08-28T00:25:44.316Z,99460.72
2022-08-28T00:28:23.866Z,99460.06
2022-08-28T00:30:56.608Z,99447.53
2022-08-28T00:33:29.940Z,99455.47
2022-08-28T00:35:58.945Z,99465.41
2022-08-28T00:38:30.318Z,99455.53
2022-08-28T00:41:01.684Z,99459.50
2022-08-28T00:43:39.486Z,99467.13
2022-08-28T00:46:18.108Z,99457.06
2022-08-28T00:48:48.009Z,99456.91
2022-08-28T00:51:20.336Z,99462.66
2022-08-28T00:53:48.916Z,99453.25
2022-08-28T00:56:19.365Z,99451.25
2022-08-28T00:58:51.327Z,99456.38
2022-08-28T01:01:19.789Z,99457.06
2022-08-28T01:03:46.807Z,99446.47
2022-08-28T01:06:16.704Z,99456.53
2022-08-28T01:08:50.440Z,99454.50
2022-08-28T01:11:19.787Z,99448.91
2022-08-28T01:13:48.592Z,99444.25
2022-08-28T01:16:19.679Z,99444.25
2022-08-28T01:18:48.496Z,99450.53
2022-08-28T01:21:28.918Z,99445.88
2022-08-28T01:24:04.845Z,99445.88
2022-08-28T01:26:32.031Z,99447.19
2022-08-28T01:29:00.985Z,99447.50
2022-08-28T01:31:30.349Z,99455.47
2022-08-28T01:33:57.909Z,99451.84
2022-08-28T01:36:25.134Z,99449.00
2022-08-28T01:39:01.246Z,99450.84
2022-08-28T01:41:28.193Z,99446.56
2022-08-28T01:43:55.518Z,99454.75
2022-08-28T01:46:22.895Z,99446.81
2022-08-28T01:48:49.750Z,99444.03
2022-08-28T01:51:20.411Z,99448.97
2022-08-28T01:53:49.824Z,99456.72
2022-08-28T01:56:18.687Z,99451.41
2022-08-28T01:58:46.311Z,99455.72
2022-08-28T02:01:16.109Z,99453.09
2022-08-28T02:03:43.533Z,99457.72
2022-08-28T02:06:11.883Z,99457.72
2022-08-28T02:08:39.535Z,99459.34
2022-08-28T02:11:07.757Z,99459.34
2022-08-28T02:13:38.572Z,99462.00
2022-08-28T02:16:09.267Z,99469.94
2022-08-28T02:18:38.272Z,99468.13
2022-08-28T02:21:07.583Z,99472.56
2022-08-28T02:23:35.602Z,99462.00
2022-08-28T02:26:02.375Z,99467.28
2022-08-28T02:28:29.419Z,99474.16
2022-08-28T02:30:57.741Z,99472.00
2022-08-28T02:33:24.650Z,99472.31
2022-08-28T02:35:51.813Z,99472.00
2022-08-28T02:38:18.892Z,99467.72
2022-08-28T02:40:46.466Z,99461.75
2022-08-28T02:43:13.546Z,99464.44
2022-08-28T02:45:40.670Z,99466.44
2022-08-28T02:48:16.762Z,99465.63
2022-08-28T02:50:44.713Z,99460.66
2022-08-28T02:53:11.965Z,99459.69
2022-08-28T02:55:38.995Z,99461.03
2022-08-28T02:58:06.524Z,99463.50
2022-08-28T03:00:33.634Z,99468.28
2022-08-28T03:03:00.508Z,99461.34
2022-08-28T03:05:28.891Z,99455.28
2022-08-28T03:07:55.720Z,99463.84
2022-08-28T03:10:23.061Z,99455.75
2022-08-28T03:12:50.022Z,99458.56
2022-08-28T03:15:17.449Z,99459.19
2022-08-28T03:17:45.281Z,99459.38
2022-08-28T03:20:15.844Z,99462.66
2022-08-28T03:22:44.606Z,99462.03
2022-08-28T03:25:12.421Z,99461.84
2022-08-28T03:27:39.618Z,99461.84
2022-08-28T03:30:08.436Z,99456.91
2022-08-28T03:32:36.222Z,99449.78
2022-08-28T03:35:05.339Z,99454.09
2022-08-28T03:37:32.263Z,99461.84
2022-08-28T03:40:00.699Z,99470.75
2022-08-28T03:42:27.581Z,99463.50
2022-08-28T03:44:54.739Z,99464.16
2022-08-28T03:47:21.728Z,99463.31
2022-08-28T03:49:55.244Z,99470.44
2022-08-28T03:52:23.456Z,99472.91
2022-08-28T03:54:51.233Z,99479.00
2022-08-28T03:57:21.819Z,99472.06
2022-08-28T03:59:52.370Z,99474.09
2022-08-28T04:02:19.942Z,99469.66
2022-08-28T04:04:48.228Z,99467.81
2022-08-28T04:07:16.289Z,99473.56
2022-08-28T04:09:43.306Z,99476.06
2022-08-28T04:12:10.835Z,99479.38
2022-08-28T04:14:39.393Z,99477.53
2022-08-28T04:17:07.154Z,99476.53
2022-08-28T04:19:34.357Z,99472.78
2022-08-28T04:22:01.380Z,99479.69
2022-08-28T04:24:28.221Z,99478.06
2022-08-28T04:26:55.151Z,99479.69
2022-08-28T04:29:22.125Z,99482.34
2022-08-28T04:31:50.584Z,99482.50
2022-08-28T04:34:17.796Z,99483.66
2022-08-28T04:36:45.148Z,99487.78
2022-08-28T04:39:12.007Z,99484.19
2022-08-28T04:41:38.861Z,99491.78
2022-08-28T04:44:06.717Z,99490.78
2022-08-28T04:46:34.062Z,99487.69
2022-08-28T04:49:03.167Z,99495.41
2022-08-28T04:51:31.268Z,99495.78
2022-08-28T04:53:58.957Z,99499.75
2022-08-28T04:56:26.957Z,99499.09
2022-08-28T04:58:54.177Z,99505.03
2022-08-28T05:01:24.578Z,99503.84
2022-08-28T05:03:56.362Z,99488.84
2022-08-28T05:06:26.739Z,99500.56
2022-08-28T05:08:57.915Z,99506.19
2022-08-28T05:11:33.418Z,99491.97
2022-08-28T05:14:04.970Z,99502.38
2022-08-28T05:16:33.586Z,99502.84
2022-08-28T05:19:01.644Z,99508.97
2022-08-28T05:21:30.216Z,99513.44
2022-08-28T05:23:58.057Z,99507.66
2022-08-28T05:26:27.234Z,99511.09
2022-08-28T05:28:58.193Z,99516.38
2022-08-28T05:31:26.781Z,99519.03
2022-08-28T05:33:54.803Z,99525.78
2022-08-28T05:36:25.787Z,99519.69
2022-08-28T05:38:58.433Z,99525.63
2022-08-28T05:41:29.321Z,99533.19
2022-08-28T05:43:58.077Z,99525.63
2022-08-28T05:46:25.798Z,99524.31
2022-08-28T05:48:52.695Z,99530.09
2022-08-28T05:51:23.030Z,99522.16
2022-08-28T05:53:52.093Z,99526.59
2022-08-28T05:56:24.352Z,99523.25
2022-08-28T05:58:51.729Z,99534.97
2022-08-28T06:01:22.338Z,99524.88
2022-08-28T06:03:54.853Z,99532.13
2022-08-28T06:06:23.304Z,99528.16
2022-08-28T06:09:07.380Z,99540.06
2022-08-28T06:11:36.953Z,99541.31
2022-08-28T06:14:08.909Z,99535.41
2022-08-28T06:16:38.736Z,99540.47
2022-08-28T06:19:06.452Z,99531.38
2022-08-28T06:21:33.318Z,99538.97
2022-08-28T06:24:00.523Z,99543.56
2022-08-28T06:26:27.642Z,99546.84
2022-08-28T06:29:00.376Z,99544.13
2022-08-28T06:31:33.040Z,99540.63
2022-08-28T06:34:01.330Z,99546.00
2022-08-28T06:36:33.089Z,99546.91
2022-08-28T06:39:03.652Z,99547.66
2022-08-28T06:41:31.387Z,99547.59
2022-08-28T06:44:00.010Z,99550.06
2022-08-28T06:46:27.583Z,99558.94
2022-08-28T06:48:54.861Z,99559.19
2022-08-28T06:51:24.844Z,99566.06
2022-08-28T06:53:52.387Z,99567.03
2022-08-28T06:56:25.710Z,99569.28
2022-08-28T06:58:56.204Z,99573.59
2022-08-28T07:01:28.340Z,99571.22
2022-08-28T07:03:58.835Z,99573.06
2022-08-28T07:06:27.138Z,99579.78
2022-08-28T07:08:54.201Z,99577.63
2022-08-28T07:11:26.129Z,99577.53
2022-08-28T07:13:55.890Z,99576.38
2022-08-28T07:16:29.070Z,99578.59
2022-08-28T07:18:57.610Z,99580.81
2022-08-28T07:21:25.008Z,99587.84
2022-08-28T07:23:51.966Z,99588.97
2022-08-28T07:26:22.570Z,99581.94
2022-08-28T07:28:50.171Z,99582.84
2022-08-28T07:31:23.289Z,99582.50
2022-08-28T07:33:54.064Z,99592.63
2022-08-28T07:36:29.261Z,99586.13
2022-08-28T07:38:59.688Z,99593.13
2022-08-28T07:41:30.134Z,99591.94
2022-08-28T07:43:57.929Z,99591.25
2022-08-28T07:46:25.022Z,99597.88
2022-08-28T07:48:53.516Z,99595.63
2022-08-28T07:51:20.783Z,99600.78
2022-08-28T07:53:47.638Z,99606.63
2022-08-28T07:56:14.547Z,99600.88
2022-08-28T07:58:41.372Z,99604.09
2022-08-28T08:01:08.796Z,99608.78
2022-08-28T08:03:35.679Z,99609.03
2022-08-28T08:06:05.994Z,99605.72
2022-08-28T08:08:34.504Z,99610.38
2022-08-28T08:11:06.004Z,99619.47
2022-08-28T08:13:35.307Z,99617.81
2022-08-28T08:16:06.451Z,99613.94
2022-08-28T08:18:34.199Z,99614.50
2022-08-28T08:21:07.003Z,99619.31
2022-08-28T08:23:34.694Z,99625.03
2022-08-28T08:26:05.068Z,99623.47
2022-08-28T08:28:35.291Z,99626.16
2022-08-28T08:31:05.916Z,99631.19
2022-08-28T08:33:33.979Z,99636.09
2022-08-28T08:36:01.063Z,99635.34
2022-08-28T08:38:30.779Z,99632.59
2022-08-28T08:41:00.418Z,99639.41
2022-08-28T08:43:33.523Z,99636.28
2022-08-28T08:46:00.937Z,99647.50
2022-08-28T08:48:34.070Z,99646.91
2022-08-28T08:51:11.051Z,99638.84
2022-08-28T08:53:54.112Z,99648.00
2022-08-28T08:56:21.006Z,99640.63
2022-08-28T08:58:53.571Z,99650.31
2022-08-28T09:01:30.693Z,99648.84
2022-08-28T09:04:09.127Z,99657.44
2022-08-28T09:06:47.551Z,99654.56
2022-08-28T09:09:26.431Z,99650.22
2022-08-28T09:11:57.843Z,99657.38
2022-08-28T09:14:37.812Z,99660.28
2022-08-28T09:17:07.342Z,99659.69
2022-08-28T09:19:37.762Z,99661.47
2022-08-28T09:22:05.017Z,99661.31
2022-08-28T09:24:35.923Z,99659.72
2022-08-28T09:27:12.331Z,99659.88
2022-08-28T09:29:42.433Z,99656.31
2022-08-28T09:32:23.167Z,99659.13
2022-08-28T09:35:13.176Z,99665.84
2022-08-28T09:37:42.593Z,99665.53
2022-08-28T09:40:25.000Z,99664.25
2022-08-28T09:43:15.039Z,99661.19
2022-08-28T09:45:42.547Z,99663.09
2022-08-28T09:48:21.848Z,99666.09
2022-08-28T09:50:59.357Z,99665.84
2022-08-28T09:53:26.217Z,99665.03
2022-08-28T09:56:08.087Z,99664.47
2022-08-28T09:58:39.867Z,99664.19
2022-08-28T10:01:47.289Z,99658.31
2022-08-28T10:04:46.297Z,99657.41
2022-08-28T10:07:25.002Z,99660.00
2022-08-28T10:10:12.696Z,99654.84
2022-08-28T10:13:02.960Z,99655.00
2022-08-28T10:16:19.042Z,99649.78
2022-08-28T10:18:58.010Z,99656.47
2022-08-28T10:21:36.714Z,99656.56
2022-08-28T10:24:28.391Z,99652.63
2022-08-28T10:27:11.236Z,99655.28
2022-08-28T10:29:53.664Z,99659.06
2022-08-28T10:32:53.741Z,99656.06
2022-08-28T10:35:25.734Z,99657.25
2022-08-28T10:38:08.757Z,99656.81
2022-08-28T10:40:40.426Z,99648.63
2022-08-28T10:43:16.362Z,99651.28
2022-08-28T10:45:45.700Z,99656.53
2022-08-28T10:48:25.141Z,99656.13
2022-08-28T10:51:00.483Z,99647.75
2022-08-28T10:53:37.448Z,99654.78
2022-08-28T10:56:13.001Z,99648.75
2022-08-28T10:58:41.374Z,99658.44
2022-08-28T11:01:18.558Z,99659.72
2022-08-28T11:03:51.371Z,99658.31
2022-08-28T11:06:33.198Z,99665.56
2022-08-28T11:09:06.801Z,99656.50
2022-08-28T11:11:45.043Z,99650.94
2022-08-28T11:14:26.786Z,99659.44
2022-08-28T11:17:00.380Z,99656.72
2022-08-28T11:19:59.618Z,99662.56
2022-08-28T11:22:34.829Z,99661.22
2022-08-28T11:25:15.132Z,99659.78
2022-08-28T11:28:16.035Z,99661.28
2022-08-28T11:30:44.721Z,99665.50
2022-08-28T11:33:39.396Z,99663.75
2022-08-28T11:36:12.230Z,99667.13
2022-08-28T11:39:05.898Z,99651.34
2022-08-28T11:41:36.198Z,99658.31
2022-08-28T11:44:38.637Z,99648.75
2022-08-28T11:47:49.522Z,99655.91
2022-08-28T11:50:25.524Z,99648.47
2022-08-28T11:53:50.842Z,99643.97
2022-08-28T11:56:49.101Z,99649.22
2022-08-28T11:59:45.528Z,99647.31
2022-08-28T12:02:48.752Z,99647.66
2022-08-28T12:05:49.638Z,99646.34
2022-08-28T12:09:08.534Z,99646.03
2022-08-28T12:11:56.776Z,99645.34
2022-08-28T12:15:10.134Z,99642.22
2022-08-28T12:17:59.755Z,99641.88
2022-08-28T12:20:38.834Z,99636.94
2022-08-28T12:23:39.535Z,99631.22
2022-08-28T12:26:19.203Z,99632.94
2022-08-28T12:28:51.561Z,99629.47
2022-08-28T12:32:01.320Z,99634.78
2022-08-28T12:34:49.855Z,99626.13
2022-08-28T12:37:30.796Z,99633.22
2022-08-28T12:40:17.915Z,99631.50
2022-08-28T12:42:55.053Z,99626.44
2022-08-28T12:45:29.344Z,99625.88
2022-08-28T12:48:02.543Z,99625.09
2022-08-28T12:50:35.287Z,99630.41
2022-08-28T12:53:07.600Z,99624.19
2022-08-28T12:55:37.883Z,99618.16
2022-08-28T12:58:12.916Z,99621.06
2022-08-28T13:00:54.712Z,99617.97
2022-08-28T13:03:23.670Z,99621.34
2022-08-28T13:06:01.500Z,99609.34
2022-08-28T13:08:29.453Z,99616.34
2022-08-28T13:10:56.674Z,99607.75
2022-08-28T13:13:35.088Z,99603.47
2022-08-28T13:16:04.938Z,99602.81
2022-08-28T13:18:47.443Z,99600.56
2022-08-28T13:21:34.866Z,99604.56
2022-08-28T13:24:40.652Z,99594.44
2022-08-28T13:27:25.007Z,99596.69
2022-08-28T13:30:01.279Z,99587.53
2022-08-28T13:32:32.586Z,99593.63
2022-08-28T13:35:35.296Z,99592.16
2022-08-28T13:38:07.251Z,99592.75
2022-08-28T13:41:00.075Z,99593.03
2022-08-28T13:43:42.762Z,99590.03
2022-08-28T13:46:10.151Z,99585.03
2022-08-28T13:48:37.031Z,99581.66
2022-08-28T13:51:10.675Z,99583.91
2022-08-28T13:53:39.732Z,99579.97
2022-08-28T13:56:07.191Z,99576.66
2022-08-28T13:58:34.345Z,99580.69
2022-08-28T14:01:02.369Z,99568.63
2022-08-28T14:03:29.379Z,99580.00
2022-08-28T14:05:56.321Z,99577.44
2022-08-28T14:08:25.028Z,99574.44
2022-08-28T14:10:52.254Z,99551.34
2022-08-28T14:13:19.437Z,99555.97
2022-08-28T14:15:46.374Z,99562.59
2022-08-28T14:18:13.435Z,99561.25
2022-08-28T14:20:40.629Z,99559.44
2022-08-28T14:23:09.844Z,99558.50
2022-08-28T14:25:43.532Z,99558.28
2022-08-28T14:28:12.063Z,99557.09
2022-08-28T14:30:42.895Z,99560.91
2022-08-28T14:33:10.942Z,99559.22
2022-08-28T14:35:39.912Z,99551.06
2022-08-28T14:38:07.248Z,99550.59
2022-08-28T14:40:36.806Z,99551.31
2022-08-28T14:43:05.413Z,99547.97
2022-08-28T14:45:32.900Z,99546.28
2022-08-28T14:48:00.143Z,99548.88
2022-08-28T14:50:27.995Z,99542.59
2022-08-28T14:52:54.957Z,99540.06
2022-08-28T14:55:21.938Z,99548.47
2022-08-28T14:57:51.214Z,99539.78
2022-08-28T15:00:20.862Z,99546.44
2022-08-28T15:02:47.840Z,99552.91
2022-08-28T15:05:15.111Z,99542.84
2022-08-28T15:07:41.923Z,99539.53
2022-08-28T15:10:10.779Z,99542.50
2022-08-28T15:12:38.563Z,99543.63
2022-08-28T15:15:06.654Z,99530.13
2022-08-28T15:17:34.919Z,99532.94
2022-08-28T15:20:03.751Z,99536.53
2022-08-28T15:22:30.839Z,99533.25
2022-08-28T15:24:57.799Z,99538.41
2022-08-28T15:27:24.673Z,99540.59
2022-08-28T15:29:51.795Z,99538.59
2022-08-28T15:32:18.914Z,99526.63
2022-08-28T15:34:47.171Z,99531.47
2022-08-28T15:37:14.061Z,99532.47
2022-08-28T15:39:41.135Z,99534.50
2022-08-28T15:42:09.946Z,99530.47
2022-08-28T15:44:47.047Z,99529.91
2022-08-28T15:47:17.350Z,99530.56
2022-08-28T15:49:48.858Z,99525.31
2022-08-28T15:52:19.606Z,99524.38
2022-08-28T15:54:47.058Z,99528.47
2022-08-28T15:57:14.233Z,99531.31
2022-08-28T15:59:50.039Z,99528.34
2022-08-28T16:02:19.822Z,99525.25
2022-08-28T16:04:47.240Z,99519.91
2022-08-28T16:07:20.426Z,99529.94
2022-08-28T16:09:47.550Z,99514.19
2022-08-28T16:12:14.458Z,99524.00
2022-08-28T16:14:41.947Z,99527.19
2022-08-28T16:17:10.979Z,99525.69
2022-08-28T16:19:40.021Z,99533.63
2022-08-28T16:22:07.807Z,99526.94
2022-08-28T16:24:36.392Z,99528.81
2022-08-28T16:27:03.511Z,99535.78
2022-08-28T16:29:30.634Z,99529.19
2022-08-28T16:31:57.532Z,99529.59
2022-08-28T16:34:30.782Z,99523.47
2022-08-28T16:36:58.892Z,99528.34
2022-08-28T16:39:26.135Z,99525.53
2022-08-28T16:41:54.664Z,99523.47
2022-08-28T16:44:24.262Z,99525.09
2022-08-28T16:46:51.856Z,99529.69
2022-08-28T16:49:19.379Z,99528.25
2022-08-28T16:51:46.987Z,99533.91
2022-08-28T16:54:14.374Z,99529.81
2022-08-28T16:56:41.560Z,99526.75
2022-08-28T16:59:10.389Z,99521.63
2022-08-28T17:01:40.154Z,99520.84
2022-08-28T17:04:09.819Z,99529.81
2022-08-28T17:06:36.654Z,99530.88
2022-08-28T17:09:04.138Z,99539.31
2022-08-28T17:11:31.935Z,99532.16
2022-08-28T17:13:59.169Z,99534.91
2022-08-28T17:16:30.141Z,99537.44
2022-08-28T17:18:58.170Z,99533.34
2022-08-28T17:21:25.298Z,99542.16
2022-08-28T17:23:52.401Z,99535.22
2022-08-28T17:26:20.536Z,99536.66
2022-08-28T17:28:47.656Z,99537.28
2022-08-28T17:31:14.992Z,99539.19
2022-08-28T17:33:44.993Z,99538.56
2022-08-28T17:36:21.330Z,99540.03
2022-08-28T17:39:01.989Z,99542.06
2022-08-28T17:41:28.882Z,99554.81
2022-08-28T17:43:56.009Z,99547.84
2022-08-28T17:46:22.979Z,99548.69
2022-08-28T17:48:55.718Z,99552.19
2022-08-28T17:51:40.386Z,99552.78
2022-08-28T17:54:12.043Z,99556.28
2022-08-28T17:56:39.175Z,99552.00
2022-08-28T17:59:06.279Z,99552.41
2022-08-28T18:01:33.285Z,99552.84
2022-08-28T18:04:03.764Z,99557.75
2022-08-28T18:06:30.924Z,99556.94
2022-08-28T18:08:58.060Z,99559.78
2022-08-28T18:11:25.129Z,99563.09
2022-08-28T18:13:52.272Z,99553.19
2022-08-28T18:16:19.543Z,99564.88
2022-08-28T18:18:47.461Z,99560.56
2022-08-28T18:21:15.761Z,99569.16
2022-08-28T18:23:42.792Z,99567.50
2022-08-28T18:26:10.037Z,99567.88
2022-08-28T18:28:37.285Z,99578.31
2022-08-28T18:31:06.457Z,99571.31
2022-08-28T18:33:34.069Z,99571.94
2022-08-28T18:36:01.291Z,99581.75
2022-08-28T18:38:30.027Z,99590.34
2022-08-28T18:40:57.104Z,99590.28
2022-08-28T18:43:24.103Z,99596.38
2022-08-28T18:45:50.971Z,99595.34
2022-08-28T18:48:18.304Z,99606.56
2022-08-28T18:50:46.708Z,99603.88
2022-08-28T18:53:14.909Z,99606.31
2022-08-28T18:55:43.304Z,99606.88
2022-08-28T18:58:14.946Z,99617.28
2022-08-28T19:00:42.760Z,99619.41
2022-08-28T19:03:10.428Z,99620.78
2022-08-28T19:05:39.196Z,99617.25
2022-08-28T19:08:06.270Z,99623.28
2022-08-28T19:10:34.938Z,99632.03
2022-08-28T19:13:05.585Z,99625.47
2022-08-28T19:15:34.790Z,99641.16
2022-08-28T19:18:02.775Z,99642.13
2022-08-28T19:20:31.176Z,99642.44
2022-08-28T19:22:59.178Z,99648.31
2022-08-28T19:25:29.453Z,99653.91
2022-08-28T19:27:59.157Z,99653.31
2022-08-28T19:30:34.751Z,99656.09
2022-08-28T19:33:04.868Z,99654.81
2022-08-28T19:35:33.214Z,99660.31
2022-08-28T19:38:00.867Z,99655.56
2022-08-28T19:40:28.430Z,99651.25
2022-08-28T19:42:55.376Z,99663.84
2022-08-28T19:45:23.404Z,99664.88
2022-08-28T19:47:52.344Z,99661.94
2022-08-28T19:50:19.989Z,99665.16
2022-08-28T19:52:46.856Z,99665.72
2022-08-28T19:55:17.711Z,99671.22
2022-08-28T19:57:44.979Z,99672.16
2022-08-28T20:00:13.458Z,99670.78
2022-08-28T20:02:40.851Z,99668.50
2022-08-28T20:05:10.971Z,99674.00
2022-08-28T20:07:37.860Z,99669.06
2022-08-28T20:10:06.947Z,99676.38
2022-08-28T20:12:37.187Z,99676.56
2022-08-28T20:15:05.718Z,99683.34
2022-08-28T20:17:33.055Z,99674.47
2022-08-28T20:20:03.019Z,99683.22
2022-08-28T20:22:32.184Z,99680.69
2022-08-28T20:24:59.453Z,99681.50
2022-08-28T20:27:26.672Z,99687.19
2022-08-28T20:29:53.701Z,99681.69
2022-08-28T20:32:20.931Z,99686.78
2022-08-28T20:34:47.749Z,99690.72
2022-08-28T20:37:14.841Z,99680.56
2022-08-28T20:39:43.230Z,99686.91
2022-08-28T20:42:10.935Z,99686.91
2022-08-28T20:44:37.947Z,99685.88
2022-08-28T20:47:06.031Z,99685.88
2022-08-28T20:49:34.166Z,99689.72
2022-08-28T20:52:07.195Z,99692.75
2022-08-28T20:54:37.605Z,99692.09
2022-08-28T20:57:10.201Z,99694.13
2022-08-28T20:59:40.794Z,99690.72
2022-08-28T21:02:10.913Z,99695.47
2022-08-28T21:04:39.969Z,99689.91
2022-08-28T21:07:07.272Z,99691.97
2022-08-28T21:09:58.162Z,99697.34
2022-08-28T21:12:23.836Z,99695.28
2022-08-28T21:14:52.710Z,99700.69
2022-08-28T21:17:22.605Z,99702.06
2022-08-28T21:19:59.171Z,99705.66
2022-08-28T21:22:26.014Z,99704.13
2022-08-28T21:24:53.871Z,99704.84
2022-08-28T21:27:22.045Z,99710.66
2022-08-28T21:29:49.067Z,99709.84
2022-08-28T21:32:16.021Z,99713.31
2022-08-28T21:34:42.878Z,99715.63
2022-08-28T21:37:09.986Z,99714.63
2022-08-28T21:39:36.927Z,99721.56
2022-08-28T21:42:04.114Z,99724.88
2022-08-28T21:44:32.507Z,99722.03
2022-08-28T21:47:00.245Z,99718.47
2022-08-28T21:49:27.302Z,99716.81
2022-08-28T21:51:54.420Z,99721.78
2022-08-28T21:54:22.125Z,99726.41
2022-08-28T21:56:50.629Z,99716.44
2022-08-28T21:59:26.713Z,99726.69
2022-08-28T22:02:01.406Z,99727.38
2022-08-28T22:04:29.124Z,99721.47
2022-08-28T22:06:56.111Z,99729.44
2022-08-28T22:09:23.023Z,99726.84
2022-08-28T22:11:50.431Z,99726.41
2022-08-28T22:14:17.312Z,99723.66
2022-08-28T22:16:44.632Z,99719.03
2022-08-28T22:19:12.859Z,99722.84
2022-08-28T22:21:39.675Z,99733.78
2022-08-28T22:24:09.820Z,99727.34
2022-08-28T22:26:37.823Z,99730.50
2022-08-28T22:29:05.098Z,99721.44
2022-08-28T22:31:32.297Z,99726.41
2022-08-28T22:33:59.245Z,99734.03
2022-08-28T22:36:29.405Z,99729.56
2022-08-28T22:38:57.127Z,99728.72
2022-08-28T22:41:24.885Z,99727.09
2022-08-28T22:43:53.670Z,99729.22
2022-08-28T22:46:20.803Z,99725.41
2022-08-28T22:48:48.954Z,99724.63
2022-08-28T22:51:18.767Z,99728.63
2022-08-28T22:53:48.646Z,99734.09
2022-08-28T22:56:17.206Z,99740.22
2022-08-28T22:58:44.716Z,99739.88
2022-08-28T23:01:17.590Z,99745.84
2022-08-28T23:03:45.658Z,99746.00
2022-08-28T23:06:13.332Z,99747.16
2022-08-28T23:08:41.054Z,99742.22
2022-08-28T23:11:10.139Z,99736.09
2022-08-28T23:13:38.808Z,99743.38
2022-08-28T23:16:06.722Z,99740.53
2022-08-28T23:18:51.657Z,99746.66
2022-08-28T23:21:26.217Z,99737.75
2022-08-28T23:23:54.860Z,99735.75
2022-08-28T23:26:24.979Z,99735.59
2022-08-28T23:28:52.969Z,99729.50
2022-08-28T23:31:19.871Z,99740.91
2022-08-28T23:33:48.586Z,99740.06
2022-08-28T23:36:16.056Z,99736.41
2022-08-28T23:38:45.543Z,99739.69
2022-08-28T23:41:12.762Z,99725.66
2022-08-28T23:43:42.183Z,99732.59
2022-08-28T23:46:09.838Z,99735.41
2022-08-28T23:48:40.553Z,99740.19
2022-08-28T23:51:09.250Z,99730.13
2022-08-28T23:53:36.817Z,99734.06
2022-08-28T23:56:04.521Z,99732.09
2022-08-28T23:58:31.801Z,99734.22
